createdAt,value
2019-03-10T00:01:26.170Z,91.80
2019-03-10T00:03:57.166Z,91.80
2019-03-10T00:06:29.506Z,91.80
2019-03-10T00:08:59.707Z,91.90
2019-03-10T00:11:28.117Z,92.10
2019-03-10T00:14:00.001Z,92.40
2019-03-10T00:16:28.733Z,92.40
2019-03-10T00:19:24.239Z,92.50
2019-03-10T00:22:37.095Z,92.60
2019-03-10T00:25:06.843Z,92.70
2019-03-10T00:27:36.131Z,92.60
2019-03-10T00:30:08.162Z,92.80
2019-03-10T00:32:37.825Z,92.80
2019-03-10T00:35:07.919Z,92.60
2019-03-10T00:37:37.079Z,92.40
2019-03-10T00:41:31.517Z,92.20
2019-03-10T00:44:51.472Z,92.20
2019-03-10T00:48:04.051Z,92.20
2019-03-10T00:51:02.086Z,92.10
2019-03-10T00:53:32.248Z,92.10
2019-03-10T00:56:01.666Z,92.10
2019-03-10T00:58:35.650Z,92.20
2019-03-10T01:01:05.795Z,92.10
2019-03-10T01:03:34.266Z,92.30
2019-03-10T01:06:03.020Z,92.40
2019-03-10T01:08:31.937Z,92.40
2019-03-10T01:11:00.732Z,92.30
2019-03-10T01:13:30.347Z,92.50
2019-03-10T01:16:01.796Z,92.40
2019-03-10T01:18:32.335Z,92.30
2019-03-10T01:21:03.249Z,92.40
2019-03-10T01:23:31.632Z,92.50
2019-03-10T01:26:02.580Z,92.50
2019-03-10T01:28:32.674Z,92.50
2019-03-10T01:31:09.647Z,92.40
2019-03-10T01:34:07.674Z,92.30
2019-03-10T01:36:37.505Z,92.20
2019-03-10T01:39:29.551Z,92.30
2019-03-10T01:42:09.370Z,92.30
2019-03-10T01:44:38.022Z,92.30
2019-03-10T01:47:06.355Z,92.40
2019-03-10T01:49:35.781Z,92.50
2019-03-10T01:52:09.184Z,92.50
2019-03-10T01:54:52.200Z,92.40
2019-03-10T01:57:20.708Z,92.40
2019-03-10T01:59:53.033Z,92.40
2019-03-10T02:02:25.491Z,92.20
2019-03-10T02:04:55.688Z,92.20
2019-03-10T02:07:24.354Z,92.30
2019-03-10T02:09:53.772Z,92.20
2019-03-10T02:12:22.162Z,92.10
2019-03-10T02:14:51.033Z,92.10
2019-03-10T02:17:22.267Z,92.10
2019-03-10T02:19:52.413Z,92.10
2019-03-10T02:22:20.297Z,92.10
2019-03-10T02:24:48.399Z,92.20
2019-03-10T02:27:17.015Z,92.30
2019-03-10T02:29:44.950Z,92.30
2019-03-10T02:32:13.245Z,92.30
2019-03-10T02:34:41.231Z,92.10
2019-03-10T02:37:11.720Z,92.10
2019-03-10T02:39:41.351Z,92.00
2019-03-10T02:42:10.238Z,92.00
2019-03-10T02:44:40.531Z,92.00
2019-03-10T02:47:12.932Z,92.00
2019-03-10T02:49:41.181Z,91.90
2019-03-10T02:52:14.550Z,92.00
2019-03-10T02:54:42.605Z,92.10
2019-03-10T02:57:11.735Z,92.40
2019-03-10T02:59:39.949Z,92.10
2019-03-10T03:02:07.971Z,92.20
2019-03-10T03:04:36.157Z,92.20
2019-03-10T03:07:04.173Z,92.20
2019-03-10T03:09:34.610Z,92.30
2019-03-10T03:12:04.063Z,92.50
2019-03-10T03:14:36.574Z,92.60
2019-03-10T03:17:05.285Z,93.00
2019-03-10T03:19:33.542Z,93.50
2019-03-10T03:22:03.422Z,93.80
2019-03-10T03:24:31.201Z,94.50
2019-03-10T03:27:03.499Z,94.70
2019-03-10T03:29:32.787Z,94.30
2019-03-10T03:32:04.126Z,94.90
2019-03-10T03:34:34.442Z,95.40
2019-03-10T03:37:11.625Z,95.70
2019-03-10T03:39:51.379Z,95.60
2019-03-10T03:42:19.449Z,95.90
2019-03-10T03:44:47.294Z,95.80
2019-03-10T03:47:17.498Z,95.80
2019-03-10T03:49:45.719Z,95.50
2019-03-10T03:52:14.075Z,95.40
2019-03-10T03:54:42.486Z,95.70
2019-03-10T03:57:10.796Z,95.40
2019-03-10T03:59:39.147Z,95.60
2019-03-10T04:02:18.726Z,95.50
2019-03-10T04:04:50.302Z,95.60
2019-03-10T04:07:18.188Z,95.40
2019-03-10T04:09:46.367Z,95.40
2019-03-10T04:12:14.606Z,95.60
2019-03-10T04:14:42.515Z,95.20
2019-03-10T04:17:10.581Z,95.50
2019-03-10T04:19:39.111Z,95.50
2019-03-10T04:22:07.244Z,95.50
2019-03-10T04:24:35.071Z,95.50
2019-03-10T04:27:02.952Z,95.40
2019-03-10T04:29:31.961Z,95.40
2019-03-10T04:32:00.083Z,95.80
2019-03-10T04:34:28.133Z,95.40
2019-03-10T04:36:56.689Z,95.40
2019-03-10T04:39:24.706Z,95.30
2019-03-10T04:41:53.655Z,94.70
2019-03-10T04:44:21.748Z,95.10
2019-03-10T04:46:49.819Z,94.50
2019-03-10T04:49:19.938Z,95.10
2019-03-10T04:51:48.745Z,94.70
2019-03-10T04:54:20.074Z,95.20
2019-03-10T04:56:55.810Z,95.60
2019-03-10T04:59:24.269Z,96.00
2019-03-10T05:02:09.771Z,95.80
2019-03-10T05:04:38.086Z,95.90
2019-03-10T05:07:06.486Z,95.90
2019-03-10T05:09:34.726Z,96.10
2019-03-10T05:12:03.037Z,96.20
2019-03-10T05:14:31.216Z,96.30
2019-03-10T05:16:59.329Z,96.40
2019-03-10T05:19:27.670Z,96.90
2019-03-10T05:21:56.664Z,96.80
2019-03-10T05:24:25.907Z,97.40
2019-03-10T05:26:55.037Z,97.60
2019-03-10T05:29:27.003Z,97.60
2019-03-10T05:31:56.821Z,97.20
2019-03-10T05:34:28.188Z,97.40
2019-03-10T05:37:00.702Z,97.50
2019-03-10T05:39:31.368Z,97.60
2019-03-10T05:42:00.658Z,97.60
2019-03-10T05:45:17.075Z,97.90
2019-03-10T05:47:45.443Z,97.60
2019-03-10T05:50:13.673Z,97.80
2019-03-10T05:52:44.241Z,97.60
2019-03-10T05:55:12.489Z,97.70
2019-03-10T05:57:40.913Z,97.30
2019-03-10T06:00:13.239Z,97.20
2019-03-10T06:02:41.708Z,97.40
2019-03-10T06:05:10.247Z,98.20
2019-03-10T06:07:38.547Z,98.50
2019-03-10T06:10:07.232Z,98.10
2019-03-10T06:12:36.250Z,98.50
2019-03-10T06:15:07.183Z,98.50
2019-03-10T06:17:35.575Z,98.00
2019-03-10T06:20:03.778Z,98.00
2019-03-10T06:22:33.557Z,98.10
2019-03-10T06:25:02.120Z,98.30
2019-03-10T06:27:30.222Z,98.50
2019-03-10T06:29:58.336Z,98.40
2019-03-10T06:32:45.510Z,98.40
2019-03-10T06:35:14.260Z,99.20
2019-03-10T06:37:42.237Z,98.70
2019-03-10T06:40:10.196Z,99.40
2019-03-10T06:42:38.061Z,99.00
2019-03-10T06:45:06.544Z,99.00
2019-03-10T06:47:34.268Z,99.00
2019-03-10T06:50:02.022Z,98.80
2019-03-10T06:52:29.775Z,98.60
2019-03-10T06:54:57.716Z,98.70
2019-03-10T06:57:26.117Z,98.90
2019-03-10T06:59:53.966Z,99.00
2019-03-10T07:02:25.953Z,99.00
2019-03-10T07:04:53.927Z,98.90
2019-03-10T07:07:21.888Z,99.00
2019-03-10T07:09:49.763Z,99.10
2019-03-10T07:12:17.628Z,99.80
2019-03-10T07:14:45.763Z,99.90
2019-03-10T07:17:13.841Z,99.90
2019-03-10T07:19:50.314Z,99.90
2019-03-10T07:26:04.540Z,99.90
2019-03-10T07:28:38.561Z,99.90
2019-03-10T07:31:37.669Z,99.60
2019-03-10T07:34:15.524Z,99.90
2019-03-10T07:37:02.948Z,99.80
2019-03-10T07:39:52.984Z,99.70
2019-03-10T07:42:38.443Z,99.80
2019-03-10T07:45:35.543Z,99.90
2019-03-10T07:48:35.222Z,99.90
2019-03-10T07:51:11.281Z,99.90
2019-03-10T07:54:10.884Z,99.90
2019-03-10T07:56:58.350Z,99.90
2019-03-10T07:59:39.027Z,99.90
2019-03-10T08:02:41.477Z,99.90
2019-03-10T08:05:31.473Z,99.90
2019-03-10T08:08:30.813Z,99.90
2019-03-10T08:11:10.864Z,99.90
2019-03-10T08:13:43.892Z,99.90
2019-03-10T08:16:31.185Z,99.90
2019-03-10T08:19:21.009Z,99.90
2019-03-10T08:22:20.603Z,99.90
2019-03-10T08:25:01.111Z,99.90
2019-03-10T08:28:01.614Z,99.90
2019-03-10T08:31:01.297Z,99.90
2019-03-10T08:33:40.661Z,99.90
2019-03-10T08:36:34.100Z,99.90
2019-03-10T08:39:31.801Z,99.90
2019-03-10T08:42:20.227Z,99.90
2019-03-10T08:45:13.801Z,99.90
2019-03-10T08:48:05.657Z,99.90
2019-03-10T08:50:55.254Z,99.90
2019-03-10T08:53:55.618Z,99.90
2019-03-10T08:56:58.010Z,99.90
2019-03-10T09:00:00.420Z,99.90
2019-03-10T09:02:47.976Z,99.90
2019-03-10T09:05:40.412Z,99.90
2019-03-10T09:08:43.076Z,99.90
2019-03-10T09:11:25.626Z,99.90
2019-03-10T09:14:18.799Z,99.90
2019-03-10T09:16:54.623Z,99.90
2019-03-10T09:19:33.029Z,99.90
2019-03-10T09:22:11.647Z,99.90
2019-03-10T09:24:58.109Z,99.90
2019-03-10T09:27:56.738Z,99.90
2019-03-10T09:30:50.587Z,99.90
2019-03-10T09:33:55.486Z,99.90
2019-03-10T09:36:39.195Z,99.90
2019-03-10T09:39:44.300Z,99.90
2019-03-10T09:42:49.286Z,99.90
2019-03-10T09:45:29.723Z,99.90
2019-03-10T09:48:21.035Z,99.90
2019-03-10T09:51:25.337Z,99.90
2019-03-10T09:54:27.798Z,99.90
2019-03-10T09:57:15.165Z,99.90
2019-03-10T10:00:14.549Z,99.90
2019-03-10T10:02:59.151Z,99.90
2019-03-10T10:05:55.670Z,99.90
2019-03-10T10:08:45.446Z,99.90
2019-03-10T10:11:22.066Z,99.90
2019-03-10T10:14:51.009Z,99.90
2019-03-10T10:17:41.613Z,99.90
2019-03-10T10:20:33.042Z,99.90
2019-03-10T10:23:23.701Z,99.90
2019-03-10T10:26:17.316Z,99.90
2019-03-10T10:29:07.153Z,99.90
2019-03-10T10:32:16.596Z,99.90
2019-03-10T10:35:02.415Z,99.90
2019-03-10T10:41:43.837Z,99.90
2019-03-10T10:44:42.624Z,99.90
2019-03-10T10:48:35.028Z,99.90
2019-03-10T10:56:00.545Z,99.90
2019-03-10T10:59:04.995Z,99.90
2019-03-10T11:14:09.744Z,99.90
2019-03-10T11:17:28.618Z,99.90
2019-03-10T11:27:24.499Z,99.90
2019-03-10T11:30:57.818Z,99.90
2019-03-10T11:38:44.461Z,99.90
2019-03-10T11:50:09.084Z,99.90
2019-03-10T12:00:50.619Z,97.90
2019-03-10T12:03:32.809Z,98.20
2019-03-10T12:06:46.958Z,97.60
2019-03-10T12:09:32.178Z,97.80
2019-03-10T12:12:14.470Z,97.90
2019-03-10T12:14:49.439Z,97.90
2019-03-10T12:22:05.783Z,96.70
2019-03-10T12:25:21.728Z,97.70
2019-03-10T12:28:35.756Z,98.20
2019-03-10T12:34:51.784Z,97.00
2019-03-10T12:37:19.716Z,95.60
2019-03-10T12:39:47.605Z,95.60
2019-03-10T12:42:17.095Z,95.70
2019-03-10T12:44:45.525Z,95.70
2019-03-10T12:47:15.611Z,95.50
2019-03-10T12:49:44.211Z,95.40
2019-03-10T12:52:32.237Z,95.50
2019-03-10T12:55:21.887Z,95.40
2019-03-10T12:57:59.575Z,96.20
2019-03-10T13:00:27.897Z,95.90
2019-03-10T13:02:59.186Z,96.40
2019-03-10T13:05:28.389Z,96.10
2019-03-10T13:07:56.459Z,95.90
2019-03-10T13:10:24.617Z,96.00
2019-03-10T13:12:57.687Z,95.50
2019-03-10T13:15:26.063Z,95.20
2019-03-10T13:17:55.955Z,94.80
2019-03-10T13:20:33.973Z,92.60
2019-03-10T13:23:03.730Z,92.50
2019-03-10T13:25:33.081Z,91.70
2019-03-10T13:28:14.311Z,91.20
2019-03-10T13:30:43.752Z,91.00
2019-03-10T13:33:12.805Z,91.10
2019-03-10T13:35:44.123Z,88.50
2019-03-10T13:38:13.515Z,90.20
2019-03-10T13:40:43.026Z,90.40
2019-03-10T13:43:14.541Z,89.70
2019-03-10T13:45:42.849Z,82.30
2019-03-10T13:48:24.918Z,83.20
2019-03-10T13:51:05.437Z,82.00
2019-03-10T13:53:33.474Z,81.80
2019-03-10T13:56:17.181Z,81.90
2019-03-10T13:59:26.009Z,81.40
2019-03-10T14:02:05.262Z,80.30
2019-03-10T14:04:44.621Z,79.80
2019-03-10T14:07:16.305Z,79.70
2019-03-10T14:09:53.350Z,80.00
2019-03-10T14:12:21.835Z,81.10
2019-03-10T14:15:00.365Z,81.10
2019-03-10T14:17:34.216Z,79.90
2019-03-10T14:20:15.096Z,79.40
2019-03-10T14:22:43.671Z,80.50
2019-03-10T14:25:12.150Z,80.20
2019-03-10T14:27:41.025Z,79.30
2019-03-10T14:30:12.293Z,80.40
2019-03-10T14:32:46.144Z,81.20
2019-03-10T14:35:18.416Z,79.10
2019-03-10T14:37:46.691Z,78.50
2019-03-10T14:40:20.855Z,79.40
2019-03-10T14:42:55.565Z,78.50
2019-03-10T14:45:24.571Z,78.60
2019-03-10T14:48:03.981Z,79.30
2019-03-10T14:50:35.178Z,79.10
2019-03-10T14:53:07.491Z,80.40
2019-03-10T14:55:51.492Z,79.50
2019-03-10T14:58:56.466Z,81.00
2019-03-10T15:01:26.325Z,82.50
2019-03-10T15:03:58.031Z,83.30
2019-03-10T15:06:31.987Z,83.60
2019-03-10T15:09:02.394Z,84.10
2019-03-10T15:11:36.218Z,84.80
2019-03-10T15:14:14.529Z,83.30
2019-03-10T15:16:45.260Z,83.70
2019-03-10T15:19:25.780Z,82.20
2019-03-10T15:21:56.807Z,81.70
2019-03-10T15:24:26.983Z,82.40
2019-03-10T15:26:56.040Z,81.70
2019-03-10T15:29:27.372Z,82.40
2019-03-10T15:31:55.568Z,82.50
2019-03-10T15:34:25.202Z,83.00
2019-03-10T15:36:52.915Z,86.70
2019-03-10T15:39:27.352Z,90.80
2019-03-10T15:42:03.565Z,91.20
2019-03-10T15:44:42.927Z,90.70
2019-03-10T15:47:23.770Z,90.20
2019-03-10T15:49:51.997Z,90.00
2019-03-10T15:52:25.472Z,90.00
2019-03-10T15:54:59.984Z,87.90
2019-03-10T15:57:30.806Z,88.10
2019-03-10T16:00:04.048Z,89.00
2019-03-10T16:02:31.893Z,87.20
2019-03-10T16:04:59.723Z,87.20
2019-03-10T16:07:28.217Z,87.00
2019-03-10T16:10:00.717Z,86.70
2019-03-10T16:12:28.516Z,85.80
2019-03-10T16:14:59.748Z,84.30
2019-03-10T16:18:34.642Z,82.50
2019-03-10T16:21:13.618Z,78.40
2019-03-10T16:23:45.069Z,76.70
2019-03-10T16:26:16.419Z,76.80
2019-03-10T16:28:52.839Z,77.50
2019-03-10T16:31:20.887Z,77.30
2019-03-10T16:33:49.252Z,75.30
2019-03-10T16:36:17.007Z,75.30
2019-03-10T16:38:51.964Z,75.20
2019-03-10T16:41:33.020Z,74.60
2019-03-10T16:44:44.951Z,74.40
2019-03-10T16:51:32.647Z,74.40
2019-03-10T16:54:01.156Z,74.40
2019-03-10T16:56:32.937Z,73.60
2019-03-10T16:59:34.185Z,73.50
2019-03-10T17:02:04.248Z,73.40
2019-03-10T17:05:01.538Z,73.80
2019-03-10T17:08:43.620Z,73.60
2019-03-10T17:11:12.554Z,73.80
2019-03-10T17:14:04.832Z,74.20
2019-03-10T17:16:36.123Z,73.20
2019-03-10T17:19:24.491Z,73.00
2019-03-10T17:22:17.256Z,72.40
2019-03-10T17:24:57.746Z,71.20
2019-03-10T17:27:21.988Z,71.70
2019-03-10T17:30:01.659Z,72.20
2019-03-10T17:32:51.336Z,72.10
2019-03-10T17:35:54.816Z,72.00
2019-03-10T17:38:32.498Z,72.80
2019-03-10T17:41:12.871Z,73.40
2019-03-10T17:54:41.197Z,74.50
2019-03-10T17:57:22.678Z,74.90
2019-03-10T17:59:58.775Z,74.10
2019-03-10T18:02:33.293Z,74.10
2019-03-10T18:08:07.358Z,74.60
2019-03-10T18:10:38.153Z,74.00
2019-03-10T18:13:08.357Z,74.30
2019-03-10T18:15:39.014Z,75.10
2019-03-10T18:18:43.745Z,75.90
2019-03-10T18:21:22.550Z,76.30
2019-03-10T18:24:16.201Z,75.90
2019-03-10T18:27:31.941Z,76.20
2019-03-10T18:30:13.482Z,77.60
2019-03-10T18:32:43.033Z,80.00
2019-03-10T18:35:14.361Z,81.40
2019-03-10T18:37:46.121Z,81.20
2019-03-10T18:40:17.968Z,82.00
2019-03-10T18:42:47.990Z,81.70
2019-03-10T18:45:21.194Z,81.70
2019-03-10T18:48:07.934Z,82.10
2019-03-10T18:50:37.980Z,82.70
2019-03-10T18:53:05.871Z,83.20
2019-03-10T18:55:33.724Z,82.80
2019-03-10T19:05:13.834Z,82.70
2019-03-10T19:07:49.817Z,82.10
2019-03-10T19:10:35.943Z,82.60
2019-03-10T19:13:19.453Z,84.50
2019-03-10T19:19:15.700Z,91.40
2019-03-10T19:22:08.358Z,92.90
2019-03-10T19:24:36.887Z,93.90
2019-03-10T19:31:14.515Z,95.10
2019-03-10T19:33:44.241Z,95.60
2019-03-10T19:36:26.545Z,95.50
2019-03-10T19:38:56.372Z,95.30
2019-03-10T19:44:35.059Z,94.30
2019-03-10T19:47:05.260Z,94.10
2019-03-10T19:49:37.687Z,93.50
2019-03-10T19:52:30.070Z,93.50
2019-03-10T19:55:07.641Z,93.10
2019-03-10T19:57:38.462Z,92.70
2019-03-10T20:00:09.837Z,92.20
2019-03-10T20:02:39.501Z,91.30
2019-03-10T20:05:23.944Z,91.40
2019-03-10T20:07:54.841Z,90.80
2019-03-10T20:10:25.101Z,90.20
2019-03-10T20:12:54.581Z,90.50
2019-03-10T20:15:27.904Z,90.10
2019-03-10T20:18:02.280Z,90.00
2019-03-10T20:20:30.359Z,89.60
2019-03-10T20:23:08.498Z,89.70
2019-03-10T20:25:37.267Z,89.50
2019-03-10T20:28:05.084Z,90.00
2019-03-10T20:30:33.984Z,90.10
2019-03-10T20:33:04.237Z,90.00
2019-03-10T20:35:32.053Z,90.10
2019-03-10T20:38:33.337Z,90.20
2019-03-10T20:41:09.438Z,89.90
2019-03-10T20:43:42.361Z,90.00
2019-03-10T20:46:14.432Z,90.10
2019-03-10T20:48:43.231Z,90.00
2019-03-10T20:51:11.742Z,88.00
2019-03-10T20:54:00.672Z,87.60
2019-03-10T20:56:34.684Z,85.50
2019-03-10T20:59:02.867Z,85.70
2019-03-10T21:01:31.948Z,83.80
2019-03-10T21:03:59.777Z,84.10
2019-03-10T21:06:38.688Z,82.70
2019-03-10T21:09:10.151Z,82.30
2019-03-10T21:11:38.256Z,81.80
2019-03-10T21:14:06.413Z,81.30
2019-03-10T21:16:37.571Z,81.50
2019-03-10T21:19:05.947Z,80.80
2019-03-10T21:21:59.842Z,80.90
2019-03-10T21:24:38.412Z,79.70
2019-03-10T21:27:15.224Z,78.40
2019-03-10T21:29:46.157Z,77.60
2019-03-10T21:35:46.933Z,77.50
2019-03-10T21:38:22.876Z,77.10
2019-03-10T21:41:23.808Z,76.70
2019-03-10T21:44:14.309Z,76.70
2019-03-10T21:46:43.698Z,77.00
2019-03-10T21:49:14.825Z,77.30
2019-03-10T21:51:47.863Z,77.30
2019-03-10T21:54:21.473Z,77.40
2019-03-10T21:56:49.432Z,77.30
2019-03-10T21:59:20.479Z,77.00
2019-03-10T22:01:48.356Z,76.70
2019-03-10T22:04:17.990Z,76.50
2019-03-10T22:06:45.824Z,77.30
2019-03-10T22:09:13.915Z,76.60
2019-03-10T22:11:41.876Z,76.10
2019-03-10T22:14:09.925Z,76.40
2019-03-10T22:16:37.940Z,76.80
2019-03-10T22:19:07.475Z,76.20
2019-03-10T22:21:35.565Z,76.60
2019-03-10T22:24:03.620Z,76.70
2019-03-10T22:26:32.285Z,77.20
2019-03-10T22:28:59.985Z,76.00
2019-03-10T22:31:27.772Z,76.70
2019-03-10T22:33:55.535Z,76.70
2019-03-10T22:36:23.376Z,76.80
2019-03-10T22:38:51.300Z,77.20
2019-03-10T22:41:19.270Z,77.60
2019-03-10T22:43:47.333Z,78.70
2019-03-10T22:46:16.013Z,78.50
2019-03-10T22:48:44.257Z,78.60
2019-03-10T22:51:12.792Z,79.20
2019-03-10T22:53:40.652Z,78.90
2019-03-10T22:59:05.888Z,80.00
2019-03-10T23:01:36.060Z,79.60
2019-03-10T23:04:04.061Z,79.40
2019-03-10T23:06:31.976Z,80.10
2019-03-10T23:08:59.799Z,81.00
2019-03-10T23:11:28.966Z,81.50
2019-03-10T23:13:56.891Z,81.10
2019-03-10T23:16:41.736Z,81.40
2019-03-10T23:19:10.303Z,81.80
2019-03-10T23:21:37.930Z,81.90
2019-03-10T23:24:06.555Z,80.20
2019-03-10T23:26:34.501Z,81.10
2019-03-10T23:29:02.633Z,81.00
2019-03-10T23:31:31.304Z,81.60
2019-03-10T23:33:59.323Z,81.60
2019-03-10T23:36:27.121Z,81.40
2019-03-10T23:38:55.292Z,80.50
2019-03-10T23:41:23.489Z,80.60
2019-03-10T23:43:52.177Z,80.50
2019-03-10T23:46:20.113Z,80.90
2019-03-10T23:48:49.763Z,80.80
2019-03-10T23:51:17.682Z,79.20
2019-03-10T23:53:45.559Z,80.00
2019-03-10T23:56:13.826Z,79.70
2019-03-10T23:58:41.514Z,79.30
